Time;durP1;ratioP1;P1;durP2;ratioP2;P2;SDS_P1;SDS_P2;PMS_P1;PMS_P2;Temp;Humidity;BMP_temperature;BMP_pressure;BME280_temperature;BME280_humidity;BME280_pressure;Samples;Min_cycle;Max_cycle;Signal;HPM_P1;HPM_P2
2022/11/18 00:01:16;;;;;;;383.77;356.27;;;8.60;35.90;;;;;;5072923;28;20470;-71
2022/11/18 00:03:43;;;;;;;719.80;667.77;;;8.60;35.10;;;;;;5072542;28;20911;-71
2022/11/18 00:06:14;;;;;;;669.30;619.23;;;8.70;35.10;;;;;;5072716;28;20407;-71
2022/11/18 00:08:40;;;;;;;498.33;459.20;;;8.70;34.90;;;;;;5072591;28;20526;-71
2022/11/18 00:11:10;;;;;;;438.57;405.07;;;8.70;34.40;;;;;;5072732;28;20424;-71
2022/11/18 00:16:23;;;;;;;228.37;209.87;;;8.70;35.60;;;;;;5072635;28;20988;-71
2022/11/18 00:18:49;;;;;;;420.30;389.10;;;8.70;35.60;;;;;;5072463;28;20496;-71
2022/11/18 00:21:14;;;;;;;682.67;629.47;;;8.70;36.00;;;;;;5072107;28;20434;-71
2022/11/18 00:23:40;;;;;;;408.17;376.07;;;8.70;35.80;;;;;;5072129;28;20426;-71
2022/11/18 00:26:08;;;;;;;202.07;187.77;;;8.70;35.70;;;;;;5072248;28;20170;-71
2022/11/18 00:28:34;;;;;;;692.53;638.83;;;8.70;35.30;;;;;;5072664;28;20651;-71
2022/11/18 00:31:08;;;;;;;514.37;473.17;;;8.70;35.70;;;;;;5072031;28;20443;-71
2022/11/18 00:33:35;;;;;;;487.97;453.47;;;8.70;34.90;;;;;;5070661;28;20526;-71
2022/11/18 00:36:03;;;;;;;484.80;451.97;;;8.60;35.10;;;;;;5070870;28;20444;-71
2022/11/18 00:38:28;;;;;;;309.47;289.37;;;8.60;34.90;;;;;;5053767;28;20470;-71
2022/11/18 00:41:06;;;;;;;664.73;611.87;;;8.60;35.10;;;;;;5051735;28;20473;-71
2022/11/18 00:43:32;;;;;;;393.23;366.17;;;8.70;34.20;;;;;;5052124;28;20200;-70
2022/11/18 00:45:58;;;;;;;443.70;410.80;;;8.70;34.00;;;;;;5050640;28;20415;-70
2022/11/18 00:48:24;;;;;;;678.03;629.17;;;8.70;34.00;;;;;;5051983;28;20420;-71
2022/11/18 00:50:55;;;;;;;336.80;313.43;;;8.70;33.70;;;;;;5051275;28;20276;-71
2022/11/18 00:53:22;;;;;;;214.27;199.70;;;8.70;34.90;;;;;;5052008;28;20462;-71
2022/11/18 00:55:48;;;;;;;356.67;335.93;;;8.70;34.20;;;;;;5050879;28;20436;-71
2022/11/18 00:58:14;;;;;;;361.27;334.63;;;8.80;34.40;;;;;;5051986;28;20420;-71
2022/11/18 01:00:44;;;;;;;637.93;589.17;;;8.90;34.20;;;;;;5051664;28;20571;-71
2022/11/18 01:03:11;;;;;;;666.00;623.73;;;8.90;34.00;;;;;;5051658;28;20205;-71
2022/11/18 01:05:37;;;;;;;626.70;579.00;;;8.90;33.70;;;;;;5051835;28;20412;-72
2022/11/18 01:08:04;;;;;;;742.13;686.57;;;8.90;33.70;;;;;;5051894;28;20815;-72
2022/11/18 01:10:29;;;;;;;593.90;551.83;;;8.90;33.70;;;;;;5051749;28;20428;-70
2022/11/18 01:15:57;;;;;;;272.27;253.10;;;9.00;33.90;;;;;;5009601;28;20212;-70
2022/11/18 01:18:29;;;;;;;567.67;523.23;;;8.90;34.70;;;;;;5042306;28;20433;-70
2022/11/18 01:20:59;;;;;;;593.87;552.60;;;8.80;34.90;;;;;;5051515;28;20436;-70
2022/11/18 01:23:25;;;;;;;654.00;611.53;;;8.90;35.10;;;;;;5051428;28;21036;-70
2022/11/18 01:25:50;;;;;;;449.57;419.90;;;8.80;34.70;;;;;;5051893;28;20416;-71
2022/11/18 01:28:17;;;;;;;588.07;542.97;;;8.70;35.50;;;;;;5050387;28;20181;-71
2022/11/18 01:30:44;;;;;;;463.37;431.07;;;8.70;36.00;;;;;;5051410;28;20220;-70
2022/11/18 01:33:10;;;;;;;653.40;606.93;;;8.60;35.00;;;;;;5051713;28;20844;-70
2022/11/18 01:35:37;;;;;;;190.67;175.20;;;8.50;35.90;;;;;;5051529;28;20420;-70
2022/11/18 01:38:03;;;;;;;707.57;657.27;;;8.50;36.70;;;;;;5051457;28;20420;-70
2022/11/18 01:40:29;;;;;;;666.43;618.47;;;8.50;37.00;;;;;;5051324;28;20430;-71
2022/11/18 01:42:55;;;;;;;471.93;438.27;;;8.50;38.20;;;;;;5051232;28;20486;-71
2022/11/18 01:45:25;;;;;;;821.87;759.33;;;8.50;38.50;;;;;;5051528;28;20416;-70
2022/11/18 01:47:58;;;;;;;652.33;604.10;;;8.60;37.60;;;;;;5051699;28;20178;-71
2022/11/18 01:50:24;;;;;;;245.80;226.53;;;8.60;37.80;;;;;;5049879;28;20822;-71
2022/11/18 01:52:54;;;;;;;554.97;510.43;;;8.70;37.50;;;;;;5049699;28;20970;-71
2022/11/18 01:55:27;;;;;;;500.90;463.50;;;8.60;38.00;;;;;;5051268;28;20470;-71
2022/11/18 01:58:02;;;;;;;616.03;573.73;;;8.60;38.20;;;;;;5051344;28;20545;-71
2022/11/18 02:00:27;;;;;;;696.20;647.60;;;8.60;37.80;;;;;;5051153;28;21040;-71
2022/11/18 02:02:53;;;;;;;731.20;678.10;;;8.60;37.60;;;;;;5051668;28;20554;-71
2022/11/18 02:05:20;;;;;;;875.50;806.30;;;8.70;37.70;;;;;;5054951;28;20209;-71
2022/11/18 02:07:46;;;;;;;587.53;544.10;;;8.70;36.70;;;;;;5054998;28;20462;-71
2022/11/18 02:10:21;;;;;;;755.93;699.63;;;8.60;37.40;;;;;;5054755;28;20440;-71
2022/11/18 02:12:48;;;;;;;491.77;453.37;;;8.60;38.30;;;;;;5054599;28;20259;-71
2022/11/18 02:15:16;;;;;;;531.47;490.77;;;8.60;38.80;;;;;;5054806;28;20446;-71
2022/11/18 02:17:54;;;;;;;685.80;636.67;;;8.40;39.80;;;;;;5054797;28;20439;-71
2022/11/18 02:20:23;;;;;;;672.63;622.63;;;8.50;40.70;;;;;;5054716;28;20478;-70
2022/11/18 02:22:49;;;;;;;672.37;623.77;;;8.50;40.60;;;;;;5054303;28;20467;-71
2022/11/18 02:25:37;;;;;;;280.03;261.10;;;8.50;41.00;;;;;;5054549;28;20972;-71
2022/11/18 02:28:27;;;;;;;755.57;697.93;;;8.50;41.00;;;;;;5053209;28;20187;-71
2022/11/18 02:30:59;;;;;;;463.73;428.50;;;8.60;41.10;;;;;;5054333;28;20452;-71
2022/11/18 02:33:37;;;;;;;630.27;585.17;;;8.50;40.30;;;;;;5052957;28;20453;-71
2022/11/18 02:36:15;;;;;;;465.37;432.10;;;8.40;40.90;;;;;;5054387;28;20420;-71
2022/11/18 02:38:45;;;;;;;376.33;345.40;;;8.40;41.00;;;;;;5054305;28;20471;-71
2022/11/18 02:41:25;;;;;;;613.90;569.87;;;8.50;40.60;;;;;;5054131;28;20439;-71
2022/11/18 02:43:54;;;;;;;533.00;494.17;;;8.40;40.90;;;;;;5054112;28;20423;-71
2022/11/18 02:46:29;;;;;;;692.07;643.07;;;8.40;40.90;;;;;;5054287;28;20855;-71
2022/11/18 02:48:56;;;;;;;631.17;583.63;;;8.30;41.50;;;;;;5057572;28;20418;-71
2022/11/18 02:51:28;;;;;;;375.13;344.43;;;8.40;42.20;;;;;;5074045;28;20435;-71
2022/11/18 02:54:01;;;;;;;293.27;269.57;;;8.50;42.00;;;;;;5074001;28;20782;-71
2022/11/18 02:56:28;;;;;;;531.17;492.00;;;8.50;41.80;;;;;;5072913;28;20522;-72
2022/11/18 02:58:54;;;;;;;509.30;470.17;;;8.60;41.10;;;;;;5073979;28;20813;-70
2022/11/18 03:01:24;;;;;;;429.17;393.60;;;8.60;41.10;;;;;;5072414;28;20455;-70
2022/11/18 03:03:49;;;;;;;454.00;423.67;;;8.60;41.10;;;;;;5073709;28;20616;-70
2022/11/18 03:06:36;;;;;;;692.53;640.93;;;8.50;41.00;;;;;;5073792;28;20432;-70
2022/11/18 03:09:22;;;;;;;431.17;400.47;;;8.40;42.00;;;;;;5073735;28;20166;-70
2022/11/18 03:12:24;;;;;;;391.30;364.23;;;8.20;42.00;;;;;;5073432;28;20750;-70
2022/11/18 03:15:08;;;;;;;317.73;295.17;;;8.10;43.80;;;;;;5072093;28;20785;-70
2022/11/18 03:17:52;;;;;;;399.93;369.33;;;8.30;45.10;;;;;;5074073;28;20434;-70
2022/11/18 03:20:37;;;;;;;139.47;128.23;;;8.20;43.80;;;;;;5073436;28;20439;-70
2022/11/18 03:23:47;;;;;;;368.27;337.97;;;8.30;43.20;;;;;;5073206;28;20462;-70
2022/11/18 03:26:23;;;;;;;471.77;441.57;;;8.40;42.80;;;;;;5014688;28;20767;-70
2022/11/18 03:29:05;;;;;;;494.27;459.30;;;8.30;41.50;;;;;;5070429;28;20498;-70
2022/11/18 03:31:39;;;;;;;630.57;584.23;;;8.30;43.50;;;;;;5073346;28;20930;-70
2022/11/18 03:34:25;;;;;;;587.60;539.73;;;8.30;41.70;;;;;;5073111;28;20525;-70
2022/11/18 03:36:55;;;;;;;726.83;675.03;;;8.20;43.70;;;;;;5072870;28;20411;-71
2022/11/18 03:39:24;;;;;;;454.13;419.73;;;8.30;43.00;;;;;;5052463;28;20912;-71
2022/11/18 03:41:54;;;;;;;588.97;539.03;;;8.40;42.00;;;;;;5050298;28;20505;-71
2022/11/18 03:44:29;;;;;;;702.97;650.90;;;8.40;41.70;;;;;;5052823;28;20903;-71
2022/11/18 03:47:01;;;;;;;707.43;654.63;;;8.50;41.00;;;;;;5051819;28;20426;-71
2022/11/18 03:49:36;;;;;;;526.93;485.70;;;8.50;41.10;;;;;;5060579;28;20496;-71
2022/11/18 03:52:14;;;;;;;726.00;670.90;;;8.60;41.10;;;;;;5072708;28;20491;-71
2022/11/18 03:54:43;;;;;;;674.17;626.60;;;8.70;39.80;;;;;;5072924;28;20434;-70
2022/11/18 03:57:21;;;;;;;672.13;621.17;;;8.70;40.00;;;;;;5071637;28;20449;-70
2022/11/18 03:59:52;;;;;;;353.93;326.10;;;8.70;39.30;;;;;;5072727;28;20824;-71
2022/11/18 04:02:20;;;;;;;634.37;587.47;;;8.70;39.70;;;;;;5072387;28;20503;-71
2022/11/18 04:04:49;;;;;;;260.17;239.37;;;8.70;38.70;;;;;;5072859;28;20409;-71
2022/11/18 04:07:44;;;;;;;339.90;310.90;;;8.70;39.10;;;;;;5071253;28;20416;-71
2022/11/18 04:10:16;;;;;;;692.70;640.03;;;8.60;40.00;;;;;;5072590;28;20818;-71
2022/11/18 04:12:48;;;;;;;785.40;721.23;;;8.60;40.30;;;;;;5072370;28;20415;-71
2022/11/18 04:15:14;;;;;;;768.87;706.33;;;8.60;41.10;;;;;;5072551;28;20422;-71
2022/11/18 04:17:41;;;;;;;676.53;626.03;;;8.60;40.00;;;;;;5072747;28;20923;-71
2022/11/18 04:20:18;;;;;;;547.93;499.87;;;8.70;40.00;;;;;;5072399;28;21136;-71
2022/11/18 04:22:44;;;;;;;758.03;697.93;;;8.70;39.80;;;;;;5071955;28;20458;-71
2022/11/18 04:25:10;;;;;;;712.87;653.60;;;8.70;39.70;;;;;;5071681;28;20414;-71
2022/11/18 04:27:35;;;;;;;622.63;571.73;;;8.70;38.50;;;;;;5072012;28;20169;-71
2022/11/18 04:30:02;;;;;;;358.27;332.87;;;8.70;38.00;;;;;;5070784;28;20454;-71
2022/11/18 04:32:27;;;;;;;298.57;274.70;;;8.50;38.70;;;;;;5071920;28;20647;-71
2022/11/18 04:34:53;;;;;;;667.57;614.63;;;8.40;40.90;;;;;;5072174;28;20505;-71
2022/11/18 04:37:18;;;;;;;404.97;377.87;;;8.40;40.90;;;;;;5072025;28;20415;-71
2022/11/18 04:39:44;;;;;;;457.63;424.43;;;8.40;40.90;;;;;;5071962;28;20204;-71
2022/11/18 04:42:09;;;;;;;617.27;568.40;;;8.40;41.70;;;;;;5071780;28;20213;-71
2022/11/18 04:44:35;;;;;;;508.93;471.90;;;8.40;40.90;;;;;;5071963;28;20180;-71
2022/11/18 04:47:03;;;;;;;627.37;581.83;;;8.30;41.60;;;;;;5072082;28;20264;-71
2022/11/18 04:49:29;;;;;;;550.17;510.63;;;8.20;40.80;;;;;;5070470;28;20284;-71
2022/11/18 04:51:55;;;;;;;524.37;486.57;;;8.10;40.70;;;;;;5071526;28;20443;-71
2022/11/18 04:54:21;;;;;;;386.63;359.73;;;8.00;40.60;;;;;;5071942;28;20204;-71
2022/11/18 04:56:47;;;;;;;551.90;511.13;;;7.90;41.30;;;;;;5071994;28;20422;-71
2022/11/18 04:59:14;;;;;;;429.07;396.97;;;7.90;41.90;;;;;;5072071;28;20419;-71
2022/11/18 05:01:40;;;;;;;280.07;257.73;;;7.80;42.50;;;;;;5071744;28;20461;-71
2022/11/18 05:04:06;;;;;;;565.50;521.90;;;7.90;41.40;;;;;;5071485;28;20410;-71
2022/11/18 05:06:32;;;;;;;505.47;468.93;;;7.90;40.60;;;;;;5070449;28;20173;-71
2022/11/18 05:08:59;;;;;;;623.60;580.30;;;8.00;40.60;;;;;;5071953;28;20418;-71
2022/11/18 05:14:10;;;;;;;484.03;448.73;;;8.00;39.50;;;;;;5071922;28;20437;-71
2022/11/18 05:16:36;;;;;;;211.63;195.70;;;7.80;36.60;;;;;;5071709;28;20918;-71
2022/11/18 05:19:03;;;;;;;725.67;673.53;;;7.90;37.50;;;;;;5071575;28;20469;-71
2022/11/18 05:21:29;;;;;;;737.97;684.20;;;7.90;37.20;;;;;;5071482;28;20177;-71
2022/11/18 05:23:54;;;;;;;610.07;569.43;;;8.00;37.30;;;;;;5071370;28;20803;-71
2022/11/18 05:26:20;;;;;;;318.97;295.73;;;7.90;35.40;;;;;;5071601;28;20176;-71
2022/11/18 05:28:45;;;;;;;452.27;416.93;;;8.00;36.30;;;;;;5071608;28;20173;-71
2022/11/18 05:31:14;;;;;;;364.03;337.93;;;7.80;35.30;;;;;;5097982;22;20227;-71
2022/11/18 05:33:39;;;;;;;381.57;353.60;;;8.00;35.40;;;;;;5057339;28;20198;-71
2022/11/18 05:36:08;;;;;;;771.20;714.13;;;8.00;35.40;;;;;;5057824;28;20420;-70
2022/11/18 05:38:34;;;;;;;496.20;457.63;;;8.00;36.40;;;;;;5078586;28;20168;-70
2022/11/18 05:41:00;;;;;;;628.97;587.90;;;8.10;35.50;;;;;;5077517;28;20442;-71
2022/11/18 05:43:26;;;;;;;746.47;691.57;;;8.00;35.50;;;;;;5076526;28;20473;-70
2022/11/18 05:45:52;;;;;;;507.40;469.13;;;8.10;35.30;;;;;;5059961;28;20940;-71
2022/11/18 05:48:18;;;;;;;669.77;618.93;;;8.20;34.00;;;;;;5078523;28;20428;-71
2022/11/18 05:50:48;;;;;;;715.83;664.67;;;8.20;32.30;;;;;;5058871;28;20654;-71
2022/11/18 05:53:15;;;;;;;784.87;726.57;;;8.20;33.20;;;;;;5056563;28;20422;-71
2022/11/18 05:56:14;;;;;;;634.97;593.53;;;8.10;33.80;;;;;;5038736;28;20427;-71
2022/11/18 05:58:39;;;;;;;714.00;660.73;;;8.10;34.50;;;;;;5058621;28;20446;-71
2022/11/18 06:01:07;;;;;;;575.57;535.37;;;8.20;34.40;;;;;;5058484;28;20437;-71
2022/11/18 06:03:37;;;;;;;559.60;520.60;;;8.20;34.90;;;;;;5058837;28;20213;-71
2022/11/18 06:06:05;;;;;;;485.60;451.93;;;8.30;34.90;;;;;;5037800;28;20416;-69
2022/11/18 06:08:36;;;;;;;710.20;660.10;;;8.20;35.00;;;;;;5055648;28;20758;-70
2022/11/18 06:11:02;;;;;;;732.73;677.53;;;8.30;34.70;;;;;;5056484;28;20473;-70
2022/11/18 06:13:35;;;;;;;619.53;575.60;;;8.20;34.90;;;;;;5039224;28;20424;-71
2022/11/18 06:16:01;;;;;;;700.23;651.17;;;8.30;34.90;;;;;;5059438;28;20420;-70
2022/11/18 06:18:30;;;;;;;588.33;545.47;;;8.30;35.40;;;;;;5041006;28;20423;-70
2022/11/18 06:20:59;;;;;;;582.20;538.70;;;8.30;35.40;;;;;;5040192;28;20451;-71
2022/11/18 06:23:27;;;;;;;728.10;677.80;;;8.30;35.80;;;;;;5057830;28;20451;-71
2022/11/18 06:25:53;;;;;;;535.63;495.67;;;8.40;35.10;;;;;;5058731;28;20423;-71
2022/11/18 06:28:21;;;;;;;594.00;550.87;;;8.20;36.00;;;;;;5041964;28;20446;-72
2022/11/18 06:30:46;;;;;;;636.87;589.17;;;8.30;36.60;;;;;;5057374;28;20458;-72
2022/11/18 06:33:12;;;;;;;455.60;422.03;;;8.20;36.10;;;;;;5057959;28;20405;-70
2022/11/18 06:35:37;;;;;;;276.97;257.33;;;8.00;36.30;;;;;;5057275;28;20209;-70
2022/11/18 06:38:03;;;;;;;247.13;228.43;;;7.90;36.70;;;;;;5039325;28;20185;-69
2022/11/18 06:40:29;;;;;;;310.20;287.53;;;7.80;37.50;;;;;;5068853;28;20213;-69
2022/11/18 06:45:38;;;;;;;348.60;322.27;;;7.70;37.20;;;;;;5078390;28;20585;-70
2022/11/18 06:48:04;;;;;;;254.70;237.93;;;7.60;37.20;;;;;;5058895;28;20414;-70
2022/11/18 06:50:30;;;;;;;791.93;731.57;;;7.70;37.70;;;;;;5058439;28;20203;-70
2022/11/18 06:52:59;;;;;;;447.17;415.87;;;7.80;36.60;;;;;;5076746;28;20418;-69
2022/11/18 06:55:24;;;;;;;457.53;423.53;;;7.70;36.20;;;;;;5075912;28;20178;-70
2022/11/18 06:57:50;;;;;;;538.97;495.70;;;7.80;36.90;;;;;;5076025;28;20413;-69
2022/11/18 07:00:16;;;;;;;355.40;328.30;;;7.80;35.80;;;;;;5075695;28;20205;-70
2022/11/18 07:02:41;;;;;;;372.23;343.57;;;7.80;35.90;;;;;;5075320;28;20203;-69
2022/11/18 07:05:07;;;;;;;348.87;324.37;;;7.80;35.90;;;;;;5075957;28;20418;-70
2022/11/18 07:07:36;;;;;;;374.53;348.37;;;7.90;36.80;;;;;;5058314;28;20186;-70
2022/11/18 07:10:01;;;;;;;338.50;316.00;;;7.90;36.30;;;;;;5076511;28;20364;-70
2022/11/18 07:12:27;;;;;;;138.13;127.27;;;8.00;36.30;;;;;;5077105;28;20419;-70
2022/11/18 07:14:52;;;;;;;625.57;579.10;;;8.00;35.40;;;;;;5058928;28;20291;-70
2022/11/18 07:17:18;;;;;;;609.67;563.50;;;8.10;36.60;;;;;;5076470;28;20255;-69
2022/11/18 07:19:43;;;;;;;405.40;375.50;;;8.20;36.30;;;;;;5076175;28;20752;-70
2022/11/18 07:22:09;;;;;;;504.70;468.33;;;8.30;35.70;;;;;;5075730;28;20287;-70
2022/11/18 07:24:34;;;;;;;220.73;203.97;;;8.30;35.70;;;;;;5076319;28;20264;-70
2022/11/18 07:27:00;;;;;;;459.20;424.30;;;8.30;34.40;;;;;;5076230;28;20177;-70
2022/11/18 07:29:25;;;;;;;273.40;253.37;;;8.40;34.00;;;;;;5079952;28;20182;-71
2022/11/18 07:31:51;;;;;;;682.70;634.73;;;8.50;35.90;;;;;;5075703;28;20290;-70
2022/11/18 07:34:16;;;;;;;516.13;479.13;;;8.60;35.40;;;;;;5089843;28;20196;-69
2022/11/18 07:36:42;;;;;;;501.07;464.00;;;8.40;34.50;;;;;;5097013;28;20229;-70
2022/11/18 07:39:08;;;;;;;145.30;133.60;;;8.40;34.10;;;;;;5095949;28;20191;-69
2022/11/18 07:41:34;;;;;;;396.57;367.50;;;8.40;35.00;;;;;;5088220;28;20675;-71
2022/11/18 07:44:02;;;;;;;635.10;585.97;;;8.60;33.80;;;;;;5076207;28;20176;-69
2022/11/18 07:46:29;;;;;;;824.27;761.03;;;8.70;32.90;;;;;;5074631;28;20414;-68
2022/11/18 07:48:57;;;;;;;599.07;555.70;;;8.90;31.80;;;;;;5081609;28;20433;-69
2022/11/18 07:51:27;;;;;;;649.93;602.93;;;8.90;31.00;;;;;;5036140;28;20445;-68
2022/11/18 07:53:53;;;;;;;640.60;599.60;;;9.00;31.00;;;;;;5054012;28;20418;-69
2022/11/18 07:56:19;;;;;;;704.27;655.00;;;9.10;31.10;;;;;;5054262;28;20784;-69
2022/11/18 07:58:45;;;;;;;468.43;434.70;;;9.00;31.00;;;;;;5067857;28;20516;-69
2022/11/18 08:01:20;;;;;;;646.13;603.07;;;9.10;29.90;;;;;;5073787;28;20465;-69
2022/11/18 08:03:46;;;;;;;178.73;165.30;;;9.10;30.00;;;;;;5057026;28;20465;-70
2022/11/18 08:06:13;;;;;;;389.97;363.50;;;9.10;29.50;;;;;;5085306;28;20471;-69
2022/11/18 08:08:39;;;;;;;541.13;503.70;;;8.90;29.70;;;;;;5074267;28;20184;-69
2022/11/18 08:11:08;;;;;;;477.13;447.50;;;8.80;30.90;;;;;;5074430;28;20961;-69
2022/11/18 08:13:34;;;;;;;475.73;444.60;;;8.80;29.20;;;;;;5073998;28;20516;-71
2022/11/18 08:16:01;;;;;;;584.73;544.50;;;8.90;29.60;;;;;;5057552;28;20435;-69
2022/11/18 08:18:30;;;;;;;619.10;573.47;;;9.00;29.50;;;;;;5093092;28;20783;-69
2022/11/18 08:21:03;;;;;;;394.90;366.53;;;9.00;29.00;;;;;;5094748;28;20456;-70
2022/11/18 08:23:29;;;;;;;433.80;405.40;;;9.10;29.40;;;;;;5090996;28;20474;-70
2022/11/18 08:26:04;;;;;;;857.10;793.27;;;8.90;29.90;;;;;;5055598;28;20784;-70
2022/11/18 08:28:30;;;;;;;956.53;883.67;;;8.80;30.90;;;;;;5073559;28;20184;-70
2022/11/18 08:30:55;;;;;;;605.33;565.23;;;8.90;31.00;;;;;;5069893;28;20478;-69
2022/11/18 08:33:21;;;;;;;610.27;571.37;;;8.80;29.60;;;;;;5072172;28;20425;-69
2022/11/18 08:35:46;;;;;;;401.40;373.20;;;8.80;31.30;;;;;;5080649;28;20670;-69
2022/11/18 08:38:12;;;;;;;505.97;470.13;;;8.70;30.80;;;;;;5074717;28;20706;-69
2022/11/18 08:40:43;;;;;;;575.67;530.30;;;8.70;30.90;;;;;;5074088;28;20201;-69
2022/11/18 08:43:12;;;;;;;450.33;420.50;;;8.60;32.80;;;;;;5072435;28;20240;-69
2022/11/18 08:45:39;;;;;;;385.87;363.50;;;8.60;32.40;;;;;;5061616;28;20441;-70
2022/11/18 08:48:05;;;;;;;337.90;311.50;;;8.70;33.00;;;;;;5082096;28;20461;-70
2022/11/18 08:50:31;;;;;;;502.50;466.70;;;8.80;30.90;;;;;;5071899;28;20878;-69
2022/11/18 08:52:56;;;;;;;480.77;444.43;;;8.80;31.80;;;;;;5061183;28;20469;-70
2022/11/18 08:55:22;;;;;;;421.30;390.97;;;8.90;31.00;;;;;;5072931;28;20220;-70
2022/11/18 08:57:48;;;;;;;606.07;562.33;;;8.80;30.90;;;;;;5072174;28;20181;-70
2022/11/18 09:00:14;;;;;;;361.00;333.37;;;8.70;31.50;;;;;;5072916;28;20213;-69
2022/11/18 09:02:40;;;;;;;721.30;665.13;;;8.80;32.30;;;;;;5087378;28;20469;-70
2022/11/18 09:05:06;;;;;;;365.37;336.40;;;8.80;32.20;;;;;;5093040;28;20426;-70
2022/11/18 09:07:31;;;;;;;475.63;441.97;;;9.00;31.00;;;;;;5070521;28;20198;-70
2022/11/18 09:09:57;;;;;;;197.70;183.30;;;9.00;31.10;;;;;;5060542;28;20217;-69
2022/11/18 09:12:22;;;;;;;395.27;367.00;;;9.10;32.00;;;;;;5051001;28;20190;-70
2022/11/18 09:14:48;;;;;;;518.53;481.37;;;9.10;31.20;;;;;;5052615;28;20174;-69
2022/11/18 09:17:14;;;;;;;358.67;332.80;;;9.10;29.70;;;;;;5035906;28;20217;-70
2022/11/18 09:19:40;;;;;;;471.67;439.60;;;9.10;30.50;;;;;;5053355;28;20209;-69
2022/11/18 09:22:07;;;;;;;526.40;492.60;;;9.20;31.00;;;;;;5053377;28;20457;-69
2022/11/18 09:24:33;;;;;;;494.67;460.83;;;9.20;31.80;;;;;;5053961;28;20409;-69
2022/11/18 09:27:03;;;;;;;646.00;600.10;;;9.20;31.20;;;;;;5053585;28;20409;-68
2022/11/18 09:29:28;;;;;;;741.13;683.63;;;9.40;31.40;;;;;;5052496;28;20415;-70
2022/11/18 09:31:54;;;;;;;415.93;387.23;;;9.60;30.00;;;;;;5033271;28;20489;-71
2022/11/18 09:34:21;;;;;;;712.13;658.10;;;9.50;29.10;;;;;;5051931;28;20261;-69
2022/11/18 09:36:46;;;;;;;664.10;612.83;;;9.50;31.50;;;;;;5051647;28;20552;-69
2022/11/18 09:39:12;;;;;;;719.27;669.57;;;9.70;29.80;;;;;;5083008;28;20416;-69
2022/11/18 09:41:40;;;;;;;710.30;661.00;;;9.90;30.00;;;;;;5052863;28;20674;-69
2022/11/18 09:44:32;;;;;;;426.70;397.10;;;9.90;29.70;;;;;;5071594;28;20188;-70
2022/11/18 09:47:04;;;;;;;520.47;484.43;;;9.80;28.60;;;;;;5071969;28;20400;-70
2022/11/18 09:49:36;;;;;;;827.20;766.30;;;9.70;29.90;;;;;;5071671;28;20408;-70
2022/11/18 09:52:08;;;;;;;501.57;466.60;;;9.60;30.70;;;;;;5071702;28;20416;-70
2022/11/18 09:54:35;;;;;;;427.27;397.67;;;9.50;31.50;;;;;;5072373;28;20405;-71
2022/11/18 09:57:01;;;;;;;436.90;404.60;;;9.50;31.50;;;;;;5054943;28;20937;-70
2022/11/18 09:59:30;;;;;;;283.97;263.87;;;9.30;32.00;;;;;;5072565;28;20427;-69
2022/11/18 10:02:33;;;;;;;598.27;553.77;;;9.30;31.80;;;;;;5053780;28;20232;-71
2022/11/18 10:05:07;;;;;;;514.37;478.33;;;9.00;32.40;;;;;;5072164;28;20794;-70
2022/11/18 10:07:45;;;;;;;397.70;371.20;;;9.00;33.40;;;;;;5072554;28;20442;-70
2022/11/18 10:10:40;;;;;;;429.87;398.10;;;9.10;33.50;;;;;;5072120;28;20484;-69
2022/11/18 10:13:25;;;;;;;619.40;576.50;;;9.30;33.10;;;;;;5071099;28;20818;-70
2022/11/18 10:16:20;;;;;;;631.13;582.37;;;9.30;32.70;;;;;;5071970;28;20469;-69
2022/11/18 10:18:53;;;;;;;266.83;248.10;;;9.30;33.90;;;;;;5053780;28;20448;-70
2022/11/18 10:21:44;;;;;;;463.37;430.67;;;9.40;32.20;;;;;;5053931;28;20443;-70
2022/11/18 10:24:22;;;;;;;333.70;311.53;;;9.20;32.00;;;;;;5073129;28;20462;-70
2022/11/18 10:26:57;;;;;;;555.00;514.47;;;9.30;32.20;;;;;;5057097;28;20423;-70
2022/11/18 10:29:23;;;;;;;455.53;423.17;;;9.30;31.30;;;;;;5076080;28;20418;-69
2022/11/18 10:32:01;;;;;;;506.33;470.50;;;9.20;31.60;;;;;;5080924;28;20459;-71
2022/11/18 10:34:26;;;;;;;508.43;473.57;;;9.20;32.40;;;;;;5078273;28;20498;-70
2022/11/18 10:37:01;;;;;;;545.80;506.03;;;9.30;32.60;;;;;;5079037;28;20439;-70
2022/11/18 10:39:27;;;;;;;662.90;614.33;;;9.40;31.40;;;;;;5078668;28;20258;-70
2022/11/18 10:41:59;;;;;;;368.20;344.03;;;9.50;31.70;;;;;;5078160;28;20969;-71
2022/11/18 10:44:26;;;;;;;471.80;437.23;;;9.50;31.50;;;;;;5079170;28;20224;-71
2022/11/18 10:46:51;;;;;;;496.07;460.60;;;9.50;31.50;;;;;;5060575;28;20427;-71
2022/11/18 10:49:17;;;;;;;507.00;473.50;;;9.70;31.70;;;;;;5059293;28;20501;-70
2022/11/18 10:51:46;;;;;;;484.03;451.13;;;9.70;31.20;;;;;;5078436;28;20236;-71
2022/11/18 10:54:14;;;;;;;554.77;515.30;;;9.70;31.60;;;;;;5060136;28;20196;-70
2022/11/18 10:56:51;;;;;;;428.57;398.00;;;9.90;31.70;;;;;;5078273;28;20412;-70
2022/11/18 10:59:24;;;;;;;450.60;421.60;;;9.80;29.80;;;;;;5078495;28;20785;-70
2022/11/18 11:02:20;;;;;;;707.37;656.30;;;9.80;31.70;;;;;;5078260;28;20463;-70
2022/11/18 11:04:50;;;;;;;287.30;267.53;;;9.80;31.00;;;;;;5060216;28;20416;-70
2022/11/18 11:07:37;;;;;;;315.63;292.37;;;10.10;29.30;;;;;;5077836;28;20906;-69
2022/11/18 11:10:08;;;;;;;252.63;234.33;;;10.30;28.20;;;;;;5075491;28;20436;-70
2022/11/18 11:12:45;;;;;;;423.33;393.73;;;10.50;28.00;;;;;;5073637;28;20416;-70
2022/11/18 11:15:26;;;;;;;387.30;359.60;;;10.70;27.20;;;;;;5055807;28;20420;-70
2022/11/18 11:20:50;;;;;;;560.07;521.80;;;10.70;27.20;;;;;;5073642;28;20431;-70
2022/11/18 11:23:15;;;;;;;447.20;417.27;;;10.70;27.20;;;;;;5073274;28;20479;-69
2022/11/18 11:26:02;;;;;;;560.93;525.83;;;10.60;27.10;;;;;;5073440;28;20408;-69
2022/11/18 11:28:40;;;;;;;591.37;552.37;;;10.60;27.10;;;;;;5073806;28;20170;-69
2022/11/18 11:31:41;;;;;;;556.23;518.17;;;10.70;27.10;;;;;;5085379;23;20488;-70
2022/11/18 11:34:48;;;;;;;522.90;482.77;;;10.80;27.10;;;;;;5049687;28;20512;-70
2022/11/18 11:37:38;;;;;;;398.47;371.53;;;10.50;25.30;;;;;;5053315;28;20499;-71
2022/11/18 11:40:33;;;;;;;635.23;592.20;;;10.50;26.40;;;;;;5037506;28;20955;-71
2022/11/18 11:43:24;;;;;;;336.47;312.53;;;10.70;26.50;;;;;;5072762;28;20462;-71
2022/11/18 11:46:22;;;;;;;503.73;469.27;;;11.00;25.80;;;;;;5073185;28;20405;-71
2022/11/18 11:49:09;;;;;;;305.63;283.53;;;11.30;23.50;;;;;;5073360;28;20807;-70
2022/11/18 11:51:54;;;;;;;468.53;438.00;;;11.20;23.40;;;;;;5072816;28;20420;-70
2022/11/18 11:54:51;;;;;;;409.07;382.00;;;11.20;23.40;;;;;;5075127;28;20871;-71
2022/11/18 11:57:37;;;;;;;493.70;460.67;;;11.10;23.40;;;;;;5055027;28;20420;-70
2022/11/18 12:00:17;;;;;;;610.33;570.20;;;11.10;22.10;;;;;;5054895;28;20468;-70
2022/11/18 12:03:04;;;;;;;501.67;467.53;;;10.40;23.80;;;;;;5072457;28;20451;-70
2022/11/18 12:05:35;;;;;;;524.83;492.37;;;10.30;23.80;;;;;;5054715;28;20491;-70
2022/11/18 12:08:05;;;;;;;575.53;536.50;;;10.40;25.00;;;;;;5072684;28;20412;-70
2022/11/18 12:10:42;;;;;;;344.27;321.40;;;10.70;24.20;;;;;;5054632;28;20980;-70
2022/11/18 12:13:34;;;;;;;402.07;376.20;;;10.60;24.10;;;;;;5054543;28;20840;-70
2022/11/18 12:16:24;;;;;;;387.03;359.27;;;10.90;23.20;;;;;;5072509;28;21006;-71
2022/11/18 12:18:56;;;;;;;467.17;437.70;;;10.60;24.10;;;;;;5072874;28;20412;-71
2022/11/18 12:21:48;;;;;;;411.07;385.27;;;10.60;22.60;;;;;;5072393;28;20845;-71
2022/11/18 12:24:16;;;;;;;383.20;358.33;;;10.60;22.80;;;;;;5068385;28;20475;-71
2022/11/18 12:26:46;;;;;;;475.90;446.03;;;10.60;23.00;;;;;;5054347;28;20416;-70
2022/11/18 12:29:24;;;;;;;326.50;306.70;;;10.40;22.40;;;;;;5072226;28;20508;-71
2022/11/18 12:31:56;;;;;;;478.67;446.70;;;10.20;22.10;;;;;;5071857;28;20447;-70
2022/11/18 12:34:25;;;;;;;463.00;432.13;;;10.00;23.50;;;;;;5054215;28;20453;-70
2022/11/18 12:36:52;;;;;;;420.73;392.43;;;10.10;23.40;;;;;;5072244;28;20439;-71
2022/11/18 12:39:44;;;;;;;627.57;587.23;;;10.10;23.20;;;;;;5047539;28;20440;-70
2022/11/18 12:45:40;;;;;;;376.60;350.83;;;9.80;24.50;;;;;;5051597;28;21186;-69
2022/11/18 12:48:31;;;;;;;489.90;458.00;;;9.80;25.70;;;;;;5025101;28;20416;-75
2022/11/18 12:50:59;;;;;;;396.17;368.57;;;9.70;25.80;;;;;;5051591;28;20460;-72
2022/11/18 12:53:47;;;;;;;628.77;585.67;;;9.60;27.20;;;;;;5070095;28;20629;-70